Terminal Aerodrome Forecast
Issued by NWS

Home | Current Version | Previous Version | Text Only | Print | Product List | Glossary On
Versions: 1 2 3 4 5 6 7 8 9 10 11 12 13 14 15 16 17 18
000
FTUS44 KTSA 242100 AAA
TAFXNA
TAF AMD
KXNA 242148Z 2422/2518 29013G28KT P6SM BKN016 OVC024
     FM242300 27013G25KT P6SM BKN050
     FM250200 29005KT P6SM SKC=

USA.gov is the U.S. government's official web portal to all federal, state and local government web resources and services.